sensor_id;sensor_type;location;lat;lon;timestamp;pressure;altitude;pressure_sealevel;temperature;humidity
3102;BME280;1561;42.666;23.392;2024-01-30T00:00:47;97136.13;;;-0.32;100.00
3102;BME280;1561;42.666;23.392;2024-01-30T00:03:24;97170.31;;;-0.15;100.00
3102;BME280;1561;42.666;23.392;2024-01-30T00:06:08;97169.59;;;-0.30;100.00
3102;BME280;1561;42.666;23.392;2024-01-30T00:08:38;97178.06;;;-0.43;100.00
3102;BME280;1561;42.666;23.392;2024-01-30T00:11:37;97143.00;;;-0.57;100.00
3102;BME280;1561;42.666;23.392;2024-01-30T00:14:17;96885.94;;;-2.29;100.00
3102;BME280;1561;42.666;23.392;2024-01-30T00:17:04;97126.94;;;-0.36;100.00
3102;BME280;1561;42.666;23.392;2024-01-30T00:20:00;97159.44;;;-0.15;100.00
3102;BME280;1561;42.666;23.392;2024-01-30T00:25:24;97168.03;;;-0.45;100.00
3102;BME280;1561;42.666;23.392;2024-01-30T00:27:55;97174.84;;;-0.62;100.00
3102;BME280;1561;42.666;23.392;2024-01-30T00:30:31;97177.34;;;-0.63;100.00
3102;BME280;1561;42.666;23.392;2024-01-30T00:33:02;97185.53;;;-0.37;100.00
3102;BME280;1561;42.666;23.392;2024-01-30T00:35:38;97016.56;;;-1.52;100.00
3102;BME280;1561;42.666;23.392;2024-01-30T00:38:10;97049.03;;;-1.30;100.00
3102;BME280;1561;42.666;23.392;2024-01-30T00:40:41;97178.19;;;-0.60;100.00
3102;BME280;1561;42.666;23.392;2024-01-30T00:43:15;97184.13;;;-0.79;100.00
3102;BME280;1561;42.666;23.392;2024-01-30T00:45:50;97185.03;;;-0.86;100.00
3102;BME280;1561;42.666;23.392;2024-01-30T00:48:23;97170.78;;;-0.84;100.00
3102;BME280;1561;42.666;23.392;2024-01-30T00:51:11;97079.97;;;-1.40;100.00
3102;BME280;1561;42.666;23.392;2024-01-30T00:53:42;97126.69;;;-1.25;100.00
3102;BME280;1561;42.666;23.392;2024-01-30T00:56:11;97154.13;;;-1.00;100.00
3102;BME280;1561;42.666;23.392;2024-01-30T00:58:44;97151.72;;;-1.13;100.00
3102;BME280;1561;42.666;23.392;2024-01-30T01:01:18;97010.97;;;-2.02;100.00
3102;BME280;1561;42.666;23.392;2024-01-30T01:03:52;97145.94;;;-1.26;100.00
3102;BME280;1561;42.666;23.392;2024-01-30T01:06:34;97170.13;;;-1.17;100.00
3102;BME280;1561;42.666;23.392;2024-01-30T01:09:20;97170.19;;;-1.34;100.00
3102;BME280;1561;42.666;23.392;2024-01-30T01:11:54;97060.25;;;-2.18;100.00
3102;BME280;1561;42.666;23.392;2024-01-30T01:14:31;97056.84;;;-2.00;100.00
3102;BME280;1561;42.666;23.392;2024-01-30T01:17:01;97146.03;;;-1.54;100.00
3102;BME280;1561;42.666;23.392;2024-01-30T01:19:29;97081.91;;;-2.06;100.00
3102;BME280;1561;42.666;23.392;2024-01-30T01:22:01;97176.09;;;-1.54;100.00
3102;BME280;1561;42.666;23.392;2024-01-30T01:24:42;97197.78;;;-1.46;100.00
3102;BME280;1561;42.666;23.392;2024-01-30T01:27:17;97171.00;;;-1.26;100.00
3102;BME280;1561;42.666;23.392;2024-01-30T01:29:47;97179.22;;;-0.97;100.00
3102;BME280;1561;42.666;23.392;2024-01-30T01:32:24;97177.50;;;-0.92;100.00
3102;BME280;1561;42.666;23.392;2024-01-30T01:34:56;97180.00;;;-0.90;100.00
3102;BME280;1561;42.666;23.392;2024-01-30T01:37:48;97139.19;;;-1.16;100.00
3102;BME280;1561;42.666;23.392;2024-01-30T01:40:30;97076.69;;;-1.49;100.00
3102;BME280;1561;42.666;23.392;2024-01-30T01:43:04;97180.78;;;-0.78;100.00
3102;BME280;1561;42.666;23.392;2024-01-30T01:45:37;97181.69;;;-0.89;100.00
3102;BME280;1561;42.666;23.392;2024-01-30T01:48:06;97163.41;;;-1.08;100.00
3102;BME280;1561;42.666;23.392;2024-01-30T01:50:53;97135.84;;;-1.15;100.00
3102;BME280;1561;42.666;23.392;2024-01-30T01:53:37;97093.34;;;-1.38;100.00
3102;BME280;1561;42.666;23.392;2024-01-30T01:56:18;97141.69;;;-1.16;100.00
3102;BME280;1561;42.666;23.392;2024-01-30T01:58:55;97125.13;;;-1.46;100.00
3102;BME280;1561;42.666;23.392;2024-01-30T02:01:31;97184.28;;;-1.06;100.00
3102;BME280;1561;42.666;23.392;2024-01-30T02:04:05;97145.09;;;-1.31;100.00
3102;BME280;1561;42.666;23.392;2024-01-30T02:06:39;97179.31;;;-1.13;100.00
3102;BME280;1561;42.666;23.392;2024-01-30T02:09:30;97182.56;;;-0.98;100.00
3102;BME280;1561;42.666;23.392;2024-01-30T02:12:04;97191.72;;;-0.91;100.00
3102;BME280;1561;42.666;23.392;2024-01-30T02:14:45;97148.41;;;-1.17;100.00
3102;BME280;1561;42.666;23.392;2024-01-30T02:17:18;97190.91;;;-0.93;100.00
3102;BME280;1561;42.666;23.392;2024-01-30T02:19:46;97172.59;;;-1.10;100.00
3102;BME280;1561;42.666;23.392;2024-01-30T02:22:16;97188.41;;;-0.96;100.00
3102;BME280;1561;42.666;23.392;2024-01-30T02:24:46;97179.97;;;-0.80;100.00
3102;BME280;1561;42.666;23.392;2024-01-30T02:27:16;97159.16;;;-0.95;100.00
3102;BME280;1561;42.666;23.392;2024-01-30T02:29:43;97180.78;;;-0.76;100.00
3102;BME280;1561;42.666;23.392;2024-01-30T02:32:14;97180.69;;;-0.61;100.00
3102;BME280;1561;42.666;23.392;2024-01-30T02:34:43;97177.44;;;-0.77;100.00
3102;BME280;1561;42.666;23.392;2024-01-30T02:37:11;97180.00;;;-0.89;100.00
3102;BME280;1561;42.666;23.392;2024-01-30T02:39:41;97165.88;;;-1.02;100.00
3102;BME280;1561;42.666;23.392;2024-01-30T02:42:11;97180.72;;;-0.67;100.00
3102;BME280;1561;42.666;23.392;2024-01-30T02:44:38;97184.09;;;-0.70;100.00
3102;BME280;1561;42.666;23.392;2024-01-30T02:47:06;97194.09;;;-0.64;100.00
3102;BME280;1561;42.666;23.392;2024-01-30T02:49:37;97173.91;;;-0.49;100.00
3102;BME280;1561;42.666;23.392;2024-01-30T02:52:07;97179.78;;;-0.48;100.00
3102;BME280;1561;42.666;23.392;2024-01-30T02:54:47;97142.28;;;-0.72;100.00
3102;BME280;1561;42.666;23.392;2024-01-30T02:57:14;97173.13;;;-0.54;100.00
3102;BME280;1561;42.666;23.392;2024-01-30T02:59:44;97176.47;;;-0.56;100.00
3102;BME280;1561;42.666;23.392;2024-01-30T03:02:12;97177.22;;;-0.45;100.00
3102;BME280;1561;42.666;23.392;2024-01-30T03:04:41;97173.91;;;-0.49;100.00
3102;BME280;1561;42.666;23.392;2024-01-30T03:07:09;97170.56;;;-0.48;100.00
3102;BME280;1561;42.666;23.392;2024-01-30T03:09:40;97147.16;;;-0.50;100.00
3102;BME280;1561;42.666;23.392;2024-01-30T03:12:12;97166.16;;;-0.17;100.00
3102;BME280;1561;42.666;23.392;2024-01-30T03:14:40;97169.53;;;-0.20;100.00
3102;BME280;1561;42.666;23.392;2024-01-30T03:17:08;97172.00;;;-0.17;100.00
3102;BME280;1561;42.666;23.392;2024-01-30T03:19:41;97173.56;;;-0.05;100.00
3102;BME280;1561;42.666;23.392;2024-01-30T03:22:14;97164.38;;;-0.09;100.00
3102;BME280;1561;42.666;23.392;2024-01-30T03:24:43;97154.34;;;-0.09;100.00
3102;BME280;1561;42.666;23.392;2024-01-30T03:27:14;97149.53;;;-0.33;100.00
3102;BME280;1561;42.666;23.392;2024-01-30T03:29:46;97167.97;;;-0.34;100.00
3102;BME280;1561;42.666;23.392;2024-01-30T03:32:16;97165.53;;;-0.48;100.00
3102;BME280;1561;42.666;23.392;2024-01-30T03:34:46;97165.47;;;-0.40;100.00
3102;BME280;1561;42.666;23.392;2024-01-30T03:37:16;97166.44;;;-0.55;100.00
3102;BME280;1561;42.666;23.392;2024-01-30T03:39:47;97143.00;;;-0.55;100.00
3102;BME280;1561;42.666;23.392;2024-01-30T03:42:16;97158.13;;;-0.69;100.00
3102;BME280;1561;42.666;23.392;2024-01-30T03:44:46;97147.19;;;-0.56;100.00
3102;BME280;1561;42.666;23.392;2024-01-30T03:47:18;97150.59;;;-0.60;100.00
3102;BME280;1561;42.666;23.392;2024-01-30T03:49:48;97152.16;;;-0.48;100.00
3102;BME280;1561;42.666;23.392;2024-01-30T03:52:19;97155.50;;;-0.48;100.00
3102;BME280;1561;42.666;23.392;2024-01-30T03:54:49;97147.25;;;-0.63;100.00
3102;BME280;1561;42.666;23.392;2024-01-30T03:57:19;97142.28;;;-0.72;100.00
3102;BME280;1561;42.666;23.392;2024-01-30T03:59:48;97136.34;;;-0.62;100.00
3102;BME280;1561;42.666;23.392;2024-01-30T04:02:17;97151.41;;;-0.61;100.00
3102;BME280;1561;42.666;23.392;2024-01-30T04:04:47;97144.72;;;-0.57;100.00
3102;BME280;1561;42.666;23.392;2024-01-30T04:07:14;97149.69;;;-0.54;100.00
3102;BME280;1561;42.666;23.392;2024-01-30T04:09:42;97143.06;;;-0.66;100.00
3102;BME280;1561;42.666;23.392;2024-01-30T04:12:13;97150.53;;;-0.58;100.00
3102;BME280;1561;42.666;23.392;2024-01-30T04:14:42;97150.53;;;-0.51;100.00
3102;BME280;1561;42.666;23.392;2024-01-30T04:17:13;97147.16;;;-0.53;100.00
3102;BME280;1561;42.666;23.392;2024-01-30T04:19:44;97128.78;;;-0.55;100.00
3102;BME280;1561;42.666;23.392;2024-01-30T04:22:12;97006.31;;;-1.16;100.00
3102;BME280;1561;42.666;23.392;2024-01-30T04:24:41;97038.78;;;-1.00;100.00
3102;BME280;1561;42.666;23.392;2024-01-30T04:27:13;97154.50;;;-0.27;100.00
3102;BME280;1561;42.666;23.392;2024-01-30T04:29:45;97023.78;;;-1.07;100.00
3102;BME280;1561;42.666;23.392;2024-01-30T04:32:12;97156.22;;;-0.32;100.00
3102;BME280;1561;42.666;23.392;2024-01-30T04:34:47;97155.53;;;-0.52;100.00
3102;BME280;1561;42.666;23.392;2024-01-30T04:37:31;97091.38;;;-0.85;100.00
3102;BME280;1561;42.666;23.392;2024-01-30T04:40:10;97158.13;;;-0.67;100.00
3102;BME280;1561;42.666;23.392;2024-01-30T04:42:45;97139.19;;;-1.10;100.00
3102;BME280;1561;42.666;23.392;2024-01-30T04:45:18;97121.72;;;-1.34;100.00
3102;BME280;1561;42.666;23.392;2024-01-30T04:47:59;97160.16;;;-1.32;100.00
3102;BME280;1561;42.666;23.392;2024-01-30T04:50:31;97170.19;;;-1.40;100.00
3102;BME280;1561;42.666;23.392;2024-01-30T04:53:17;97129.38;;;-1.75;100.00
3102;BME280;1561;42.666;23.392;2024-01-30T04:56:16;97183.53;;;-1.32;100.00
3102;BME280;1561;42.666;23.392;2024-01-30T04:59:02;97099.38;;;-1.87;100.00
3102;BME280;1561;42.666;23.392;2024-01-30T05:05:05;97157.75;;;-1.64;100.00
3102;BME280;1561;42.666;23.392;2024-01-30T05:07:36;97196.13;;;-1.53;100.00
3102;BME280;1561;42.666;23.392;2024-01-30T05:10:07;97183.56;;;-1.38;100.00
3102;BME280;1561;42.666;23.392;2024-01-30T05:12:38;97188.63;;;-1.47;100.00
3102;BME280;1561;42.666;23.392;2024-01-30T05:15:11;97074.34;;;-1.91;100.00
3102;BME280;1561;42.666;23.392;2024-01-30T05:17:44;97191.88;;;-1.25;100.00
3102;BME280;1561;42.666;23.392;2024-01-30T05:20:17;97143.56;;;-1.71;100.00
3102;BME280;1561;42.666;23.392;2024-01-30T05:22:49;97150.25;;;-1.74;100.00
3102;BME280;1561;42.666;23.392;2024-01-30T05:25:22;97187.75;;;-1.37;100.00
3102;BME280;1561;42.666;23.392;2024-01-30T05:27:51;97197.78;;;-1.49;100.00
3102;BME280;1561;42.666;23.392;2024-01-30T05:30:18;97164.41;;;-1.64;100.00
3102;BME280;1561;42.666;23.392;2024-01-30T05:32:52;97199.47;;;-1.48;100.00
3102;BME280;1561;42.666;23.392;2024-01-30T05:35:31;97064.41;;;-2.26;100.00
3102;BME280;1561;42.666;23.392;2024-01-30T05:38:00;97136.91;;;-1.84;100.00
3102;BME280;1561;42.666;23.392;2024-01-30T05:40:30;97202.84;;;-1.50;100.00
3102;BME280;1561;42.666;23.392;2024-01-30T05:43:01;97200.28;;;-1.32;100.00
3102;BME280;1561;42.666;23.392;2024-01-30T05:45:36;97195.19;;;-1.17;100.00
3102;BME280;1561;42.666;23.392;2024-01-30T05:48:05;97200.16;;;-1.08;100.00
3102;BME280;1561;42.666;23.392;2024-01-30T05:50:35;97160.94;;;-1.18;100.00
3102;BME280;1561;42.666;23.392;2024-01-30T05:53:08;97202.59;;;-0.89;100.00
3102;BME280;1561;42.666;23.392;2024-01-30T05:55:49;97177.56;;;-0.98;100.00
3102;BME280;1561;42.666;23.392;2024-01-30T05:58:18;97194.97;;;-0.72;100.00
3102;BME280;1561;42.666;23.392;2024-01-30T06:03:31;97202.25;;;-0.29;100.00
3102;BME280;1561;42.666;23.392;2024-01-30T06:06:06;97192.00;;;0.80;100.00
3102;BME280;1561;42.666;23.392;2024-01-30T06:08:38;97179.78;;;1.77;100.00
3102;BME280;1561;42.666;23.392;2024-01-30T06:11:10;97196.28;;;1.95;100.00
3102;BME280;1561;42.666;23.392;2024-01-30T06:13:40;97199.75;;;1.30;100.00
3102;BME280;1561;42.666;23.392;2024-01-30T06:16:10;97193.97;;;0.51;100.00
3102;BME280;1561;42.666;23.392;2024-01-30T06:18:44;97197.53;;;0.32;100.00
3102;BME280;1561;42.666;23.392;2024-01-30T06:21:28;97194.06;;;0.44;100.00
3102;BME280;1561;42.666;23.392;2024-01-30T06:23:59;97200.84;;;0.37;100.00
3102;BME280;1561;42.666;23.392;2024-01-30T06:26:26;97202.72;;;0.14;100.00
3102;BME280;1561;42.666;23.392;2024-01-30T06:28:59;97190.28;;;0.00;100.00
3102;BME280;1561;42.666;23.392;2024-01-30T06:31:32;97204.56;;;-0.05;100.00
3102;BME280;1561;42.666;23.392;2024-01-30T06:34:02;97202.09;;;-0.12;100.00
3102;BME280;1561;42.666;23.392;2024-01-30T06:36:33;97193.53;;;0.12;100.00
3102;BME280;1561;42.666;23.392;2024-01-30T06:39:04;97109.25;;;0.61;100.00
3102;BME280;1561;42.666;23.392;2024-01-30T06:41:36;97192.47;;;3.11;100.00
3102;BME280;1561;42.666;23.392;2024-01-30T06:44:07;97195.28;;;4.11;100.00
3102;BME280;1561;42.666;23.392;2024-01-30T06:46:35;97188.06;;;5.79;96.29
3102;BME280;1561;42.666;23.392;2024-01-30T06:49:02;97189.94;;;6.00;82.03
3102;BME280;1561;42.666;23.392;2024-01-30T06:51:37;97191.94;;;6.92;66.00
3102;BME280;1561;42.666;23.392;2024-01-30T06:54:11;97190.50;;;5.55;64.41
3102;BME280;1561;42.666;23.392;2024-01-30T06:56:40;97176.81;;;4.73;65.74
3102;BME280;1561;42.666;23.392;2024-01-30T06:59:11;97196.66;;;5.46;65.93
3102;BME280;1561;42.666;23.392;2024-01-30T07:01:41;97179.78;;;5.74;64.55
3102;BME280;1561;42.666;23.392;2024-01-30T07:04:13;97191.09;;;5.35;62.96
3102;BME280;1561;42.666;23.392;2024-01-30T07:07:00;97184.59;;;4.96;65.03
3102;BME280;1561;42.666;23.392;2024-01-30T07:12:16;97199.00;;;5.81;64.13
3102;BME280;1561;42.666;23.392;2024-01-30T07:14:45;97014.00;;;5.26;61.03
3102;BME280;1561;42.666;23.392;2024-01-30T07:17:25;97153.91;;;7.35;57.13
3102;BME280;1561;42.666;23.392;2024-01-30T07:20:14;97187.06;;;7.55;55.42
3102;BME280;1561;42.666;23.392;2024-01-30T07:22:58;97128.00;;;8.11;53.70
3102;BME280;1561;42.666;23.392;2024-01-30T07:25:29;97181.63;;;8.28;52.24
3102;BME280;1561;42.666;23.392;2024-01-30T07:27:58;97191.75;;;7.65;52.69
3102;BME280;1561;42.666;23.392;2024-01-30T07:30:29;97123.88;;;7.23;52.88
3102;BME280;1561;42.666;23.392;2024-01-30T07:32:59;97181.41;;;9.13;51.39
3102;BME280;1561;42.666;23.392;2024-01-30T07:35:26;97190.38;;;8.83;49.66
3102;BME280;1561;42.666;23.392;2024-01-30T07:37:54;97107.47;;;8.36;49.79
3102;BME280;1561;42.666;23.392;2024-01-30T07:40:24;97188.66;;;9.59;48.21
3102;BME280;1561;42.666;23.392;2024-01-30T07:42:53;97179.00;;;11.20;45.35
3102;BME280;1561;42.666;23.392;2024-01-30T07:45:22;97183.91;;;10.41;45.22
3102;BME280;1561;42.666;23.392;2024-01-30T07:47:50;97180.88;;;11.17;45.03
3102;BME280;1561;42.666;23.392;2024-01-30T07:50:17;97178.56;;;10.12;44.96
3102;BME280;1561;42.666;23.392;2024-01-30T07:52:45;97181.53;;;9.84;46.63
3102;BME280;1561;42.666;23.392;2024-01-30T07:55:29;97190.59;;;10.44;46.04
3102;BME280;1561;42.666;23.392;2024-01-30T07:57:58;97184.03;;;10.21;44.70
3102;BME280;1561;42.666;23.392;2024-01-30T08:00:26;97193.28;;;8.54;47.59
3102;BME280;1561;42.666;23.392;2024-01-30T08:02:55;97188.00;;;8.17;48.67
3102;BME280;1561;42.666;23.392;2024-01-30T08:05:22;97173.69;;;9.15;47.32
3102;BME280;1561;42.666;23.392;2024-01-30T08:07:50;97184.59;;;7.75;47.91
3102;BME280;1561;42.666;23.392;2024-01-30T08:10:18;97196.91;;;6.46;53.83
3102;BME280;1561;42.666;23.392;2024-01-30T08:12:48;97178.19;;;8.89;49.51
3102;BME280;1561;42.666;23.392;2024-01-30T08:15:15;97184.78;;;9.13;46.72
3102;BME280;1561;42.666;23.392;2024-01-30T08:17:52;97180.81;;;8.48;47.49
3102;BME280;1561;42.666;23.392;2024-01-30T08:20:23;97187.63;;;9.45;46.58
3102;BME280;1561;42.666;23.392;2024-01-30T08:22:51;97168.47;;;8.79;45.95
3102;BME280;1561;42.666;23.392;2024-01-30T08:25:18;97165.72;;;9.95;45.31
3102;BME280;1561;42.666;23.392;2024-01-30T08:27:48;97166.38;;;11.65;43.98
3102;BME280;1561;42.666;23.392;2024-01-30T08:30:15;97163.75;;;12.27;42.58
3102;BME280;1561;42.666;23.392;2024-01-30T08:32:43;97163.00;;;13.26;40.64
3102;BME280;1561;42.666;23.392;2024-01-30T08:35:10;97181.06;;;9.58;44.59
3102;BME280;1561;42.666;23.392;2024-01-30T08:37:42;97187.19;;;9.17;46.20
3102;BME280;1561;42.666;23.392;2024-01-30T08:40:10;97134.53;;;10.41;43.23
3102;BME280;1561;42.666;23.392;2024-01-30T08:42:41;97194.81;;;10.62;42.52
3102;BME280;1561;42.666;23.392;2024-01-30T08:45:13;97162.38;;;12.06;40.82
3102;BME280;1561;42.666;23.392;2024-01-30T08:47:40;97174.44;;;12.20;40.37
3102;BME280;1561;42.666;23.392;2024-01-30T08:50:08;97191.09;;;10.16;43.18
3102;BME280;1561;42.666;23.392;2024-01-30T08:52:36;97184.28;;;9.80;43.83
3102;BME280;1561;42.666;23.392;2024-01-30T08:55:04;97196.38;;;9.76;43.62
3102;BME280;1561;42.666;23.392;2024-01-30T08:57:33;97190.88;;;10.72;42.83
3102;BME280;1561;42.666;23.392;2024-01-30T09:00:01;97179.34;;;7.58;46.64
3102;BME280;1561;42.666;23.392;2024-01-30T09:02:34;97174.78;;;7.87;46.05
3102;BME280;1561;42.666;23.392;2024-01-30T09:05:03;97195.22;;;9.65;45.11
3102;BME280;1561;42.666;23.392;2024-01-30T09:07:31;97198.06;;;9.02;45.11
3102;BME280;1561;42.666;23.392;2024-01-30T09:10:00;97198.44;;;8.32;45.88
3102;BME280;1561;42.666;23.392;2024-01-30T09:12:27;97195.22;;;8.06;46.84
3102;BME280;1561;42.666;23.392;2024-01-30T09:14:55;97187.19;;;8.78;45.74
3102;BME280;1561;42.666;23.392;2024-01-30T09:17:23;97187.38;;;8.12;45.76
3102;BME280;1561;42.666;23.392;2024-01-30T09:19:52;97190.94;;;8.89;46.03
3102;BME280;1561;42.666;23.392;2024-01-30T09:22:27;97186.75;;;8.48;45.80
3102;BME280;1561;42.666;23.392;2024-01-30T09:24:55;97188.81;;;7.08;47.94
3102;BME280;1561;42.666;23.392;2024-01-30T09:27:23;97184.50;;;5.57;52.56
3102;BME280;1561;42.666;23.392;2024-01-30T09:29:54;97176.50;;;5.14;53.93
3102;BME280;1561;42.666;23.392;2024-01-30T09:32:21;97186.09;;;5.61;54.14
3102;BME280;1561;42.666;23.392;2024-01-30T09:34:53;97180.41;;;5.24;55.01
3102;BME280;1561;42.666;23.392;2024-01-30T09:37:21;97196.63;;;5.48;55.59
3102;BME280;1561;42.666;23.392;2024-01-30T09:39:48;97198.00;;;5.00;55.80
3102;BME280;1561;42.666;23.392;2024-01-30T09:42:24;97185.53;;;5.52;55.86
3102;BME280;1561;42.666;23.392;2024-01-30T09:44:56;97188.41;;;5.11;57.05
3102;BME280;1561;42.666;23.392;2024-01-30T09:47:25;97184.19;;;5.40;57.61
3102;BME280;1561;42.666;23.392;2024-01-30T09:50:01;97179.72;;;4.90;60.28
3102;BME280;1561;42.666;23.392;2024-01-30T09:52:31;97182.03;;;4.00;63.29
3102;BME280;1561;42.666;23.392;2024-01-30T09:55:02;97166.75;;;4.70;66.32
3102;BME280;1561;42.666;23.392;2024-01-30T09:57:31;97057.88;;;4.41;65.58
3102;BME280;1561;42.666;23.392;2024-01-30T09:59:59;97173.72;;;3.97;67.40
3102;BME280;1561;42.666;23.392;2024-01-30T10:02:27;97174.94;;;5.09;66.77
3102;BME280;1561;42.666;23.392;2024-01-30T10:05:02;97153.50;;;4.91;65.58
3102;BME280;1561;42.666;23.392;2024-01-30T10:07:34;97159.63;;;5.70;62.68
3102;BME280;1561;42.666;23.392;2024-01-30T10:13:04;97160.41;;;4.54;67.51
3102;BME280;1561;42.666;23.392;2024-01-30T10:15:55;97166.28;;;4.24;70.61
3102;BME280;1561;42.666;23.392;2024-01-30T10:18:25;97141.50;;;4.98;67.96
3102;BME280;1561;42.666;23.392;2024-01-30T10:20:57;97160.53;;;4.82;67.99
3102;BME280;1561;42.666;23.392;2024-01-30T10:23:27;97165.09;;;4.69;68.98
3102;BME280;1561;42.666;23.392;2024-01-30T10:25:57;97160.31;;;4.27;71.28
3102;BME280;1561;42.666;23.392;2024-01-30T10:28:34;97134.00;;;3.65;72.70
3102;BME280;1561;42.666;23.392;2024-01-30T10:31:05;97156.63;;;3.71;74.49
3102;BME280;1561;42.666;23.392;2024-01-30T10:33:34;97157.16;;;3.49;77.49
3102;BME280;1561;42.666;23.392;2024-01-30T10:36:07;97182.06;;;3.64;78.56
3102;BME280;1561;42.666;23.392;2024-01-30T10:38:38;97164.34;;;3.65;77.65
3102;BME280;1561;42.666;23.392;2024-01-30T10:41:20;97164.25;;;4.38;72.63
3102;BME280;1561;42.666;23.392;2024-01-30T10:43:57;97168.25;;;4.45;72.27
3102;BME280;1561;42.666;23.392;2024-01-30T10:46:31;97164.59;;;4.23;72.28
3102;BME280;1561;42.666;23.392;2024-01-30T10:49:07;97162.19;;;5.41;67.18
3102;BME280;1561;42.666;23.392;2024-01-30T10:51:55;97137.16;;;4.72;67.86
3102;BME280;1561;42.666;23.392;2024-01-30T10:54:33;97152.56;;;4.65;69.77
3102;BME280;1561;42.666;23.392;2024-01-30T10:57:20;97144.94;;;4.34;70.85
3102;BME280;1561;42.666;23.392;2024-01-30T10:59:55;97156.78;;;3.64;73.33
3102;BME280;1561;42.666;23.392;2024-01-30T11:02:25;97128.13;;;4.00;72.61
3102;BME280;1561;42.666;23.392;2024-01-30T11:04:59;97136.41;;;4.99;70.01
3102;BME280;1561;42.666;23.392;2024-01-30T11:07:29;97149.50;;;5.41;66.12
3102;BME280;1561;42.666;23.392;2024-01-30T11:10:02;97137.66;;;3.89;72.49
3102;BME280;1561;42.666;23.392;2024-01-30T11:12:38;97132.28;;;4.02;75.34
3102;BME280;1561;42.666;23.392;2024-01-30T11:15:12;97134.38;;;4.19;75.69
3102;BME280;1561;42.666;23.392;2024-01-30T11:17:52;97108.66;;;3.70;77.82
3102;BME280;1561;42.666;23.392;2024-01-30T11:20:21;97129.97;;;3.93;78.18
3102;BME280;1561;42.666;23.392;2024-01-30T11:22:53;97134.69;;;4.39;75.95
3102;BME280;1561;42.666;23.392;2024-01-30T11:25:23;97136.06;;;4.50;74.10
3102;BME280;1561;42.666;23.392;2024-01-30T11:27:54;96988.81;;;3.45;73.48
3102;BME280;1561;42.666;23.392;2024-01-30T11:30:25;97123.81;;;4.03;73.38
3102;BME280;1561;42.666;23.392;2024-01-30T11:33:01;97120.09;;;4.48;72.92
3102;BME280;1561;42.666;23.392;2024-01-30T11:35:33;97125.22;;;4.47;72.07
3102;BME280;1561;42.666;23.392;2024-01-30T11:38:06;97125.28;;;4.44;71.71
3102;BME280;1561;42.666;23.392;2024-01-30T11:40:37;97105.78;;;4.49;73.33
3102;BME280;1561;42.666;23.392;2024-01-30T11:43:08;97130.94;;;4.53;72.81
3102;BME280;1561;42.666;23.392;2024-01-30T11:45:41;97128.34;;;4.56;72.36
3102;BME280;1561;42.666;23.392;2024-01-30T11:48:14;97110.94;;;4.44;72.73
3102;BME280;1561;42.666;23.392;2024-01-30T11:50:47;97116.56;;;4.55;73.84
3102;BME280;1561;42.666;23.392;2024-01-30T11:53:20;97119.16;;;4.52;74.57
3102;BME280;1561;42.666;23.392;2024-01-30T11:55:51;97118.53;;;3.79;75.64
3102;BME280;1561;42.666;23.392;2024-01-30T11:58:21;97119.41;;;4.11;77.42
3102;BME280;1561;42.666;23.392;2024-01-30T12:00:55;97123.31;;;4.23;75.13
3102;BME280;1561;42.666;23.392;2024-01-30T12:03:37;97094.16;;;5.29;73.27
3102;BME280;1561;42.666;23.392;2024-01-30T12:06:05;97088.59;;;5.16;68.07
3102;BME280;1561;42.666;23.392;2024-01-30T12:08:36;97094.19;;;5.27;67.87
3102;BME280;1561;42.666;23.392;2024-01-30T12:11:18;97069.56;;;4.45;68.89
3102;BME280;1561;42.666;23.392;2024-01-30T12:13:46;97081.97;;;5.40;68.56
3102;BME280;1561;42.666;23.392;2024-01-30T12:16:14;97038.13;;;5.38;66.50
3102;BME280;1561;42.666;23.392;2024-01-30T12:18:45;97055.50;;;6.00;63.68
3102;BME280;1561;42.666;23.392;2024-01-30T12:21:16;97064.47;;;6.58;61.31
3102;BME280;1561;42.666;23.392;2024-01-30T12:23:48;97055.56;;;6.92;58.47
3102;BME280;1561;42.666;23.392;2024-01-30T12:26:15;97051.31;;;6.24;60.19
3102;BME280;1561;42.666;23.392;2024-01-30T12:28:48;97035.84;;;6.99;58.99
3102;BME280;1561;42.666;23.392;2024-01-30T12:31:16;97039.13;;;6.79;57.43
3102;BME280;1561;42.666;23.392;2024-01-30T12:33:45;97045.84;;;7.25;56.92
3102;BME280;1561;42.666;23.392;2024-01-30T12:36:24;97035.84;;;6.99;56.92
3102;BME280;1561;42.666;23.392;2024-01-30T12:38:55;97042.63;;;6.54;57.80
3102;BME280;1561;42.666;23.392;2024-01-30T12:41:24;97040.34;;;5.99;58.69
3102;BME280;1561;42.666;23.392;2024-01-30T12:43:54;97030.13;;;6.25;59.57
3102;BME280;1561;42.666;23.392;2024-01-30T12:46:25;97042.38;;;6.14;60.20
3102;BME280;1561;42.666;23.392;2024-01-30T12:48:52;97044.50;;;5.75;60.10
3102;BME280;1561;42.666;23.392;2024-01-30T12:51:21;97043.84;;;5.17;63.01
3102;BME280;1561;42.666;23.392;2024-01-30T12:53:48;97041.00;;;5.53;62.99
3102;BME280;1561;42.666;23.392;2024-01-30T12:56:17;97029.25;;;5.25;62.59
3102;BME280;1561;42.666;23.392;2024-01-30T12:58:44;97028.03;;;4.54;65.42
3102;BME280;1561;42.666;23.392;2024-01-30T13:01:13;97027.22;;;3.91;69.59
3102;BME280;1561;42.666;23.392;2024-01-30T13:03:41;96933.75;;;3.57;71.72
3102;BME280;1561;42.666;23.392;2024-01-30T13:06:13;97028.75;;;4.57;71.77
3102;BME280;1561;42.666;23.392;2024-01-30T13:08:42;97033.09;;;4.23;71.31
3102;BME280;1561;42.666;23.392;2024-01-30T13:11:09;97033.44;;;4.11;76.68
3102;BME280;1561;42.666;23.392;2024-01-30T13:13:39;97037.91;;;4.61;72.77
3102;BME280;1561;42.666;23.392;2024-01-30T13:16:09;97030.63;;;5.07;70.29
3102;BME280;1561;42.666;23.392;2024-01-30T13:18:37;97026.50;;;4.48;70.91
3102;BME280;1561;42.666;23.392;2024-01-30T13:21:05;97025.09;;;4.38;73.77
3102;BME280;1561;42.666;23.392;2024-01-30T13:23:34;97025.66;;;4.77;72.28
3102;BME280;1561;42.666;23.392;2024-01-30T13:26:02;96956.06;;;3.74;74.31
3102;BME280;1561;42.666;23.392;2024-01-30T13:28:29;96934.75;;;3.84;74.03
3102;BME280;1561;42.666;23.392;2024-01-30T13:31:01;97022.41;;;4.43;73.28
3102;BME280;1561;42.666;23.392;2024-01-30T13:33:31;97025.47;;;3.94;79.95
3102;BME280;1561;42.666;23.392;2024-01-30T13:36:01;97018.53;;;3.35;85.39
3102;BME280;1561;42.666;23.392;2024-01-30T13:38:28;96996.22;;;2.82;92.47
3102;BME280;1561;42.666;23.392;2024-01-30T13:41:00;97016.34;;;3.22;94.91
3102;BME280;1561;42.666;23.392;2024-01-30T13:43:30;96997.97;;;3.50;92.25
3102;BME280;1561;42.666;23.392;2024-01-30T13:46:00;97026.91;;;3.71;92.19
3102;BME280;1561;42.666;23.392;2024-01-30T13:48:29;97006.50;;;3.45;93.47
3102;BME280;1561;42.666;23.392;2024-01-30T13:50:56;97029.47;;;3.36;95.29
3102;BME280;1561;42.666;23.392;2024-01-30T13:53:33;97031.97;;;3.37;96.41